Wednesday, August 15, 2018, 3:42 AM CDT
Back to Local

KMDW, Chicago Midway Airport

Location: Chicago, IL, United States Lat: 41.783
Local Time: 3:42 AM CDT ( 8:42 GMT) Lon: -87.75
Time Zone: US/Central Elev: 620 ft

Show me the last for .
Show Decoded

2018-08-15 02:53 METAR KMDW 150753Z 20005KT 10SM BKN220 OVC250 25/18 A2994 RMK AO2 SLP127
                 T02500183 =
2018-08-15 01:53 METAR KMDW 150653Z 20004KT 10SM OVC250 25/18 A2993 RMK AO2 SLP122 T02500183 =
2018-08-15 00:53 METAR KMDW 150553Z 19006KT 10SM OVC250 26/18 A2994 RMK AO2 SLP125 T02560178
                 10300 20256 403220206 57009 =
2018-08-14 23:53 METAR KMDW 150453Z 20006KT 10SM OVC250 27/17 A2995 RMK AO2 SLP128 T02670172 =
2018-08-14 22:53 METAR KMDW 150353Z 20006KT 10SM OVC250 27/17 A2996 RMK AO2 SLP131 T02720167 =
2018-08-14 21:53 METAR KMDW 150253Z 22008KT 10SM FEW060 SCT090 OVC250 28/17 A2996 RMK AO2 SLP134
                 T02780167 53009 =
2018-08-14 20:53 METAR KMDW 150153Z 18007KT 10SM FEW060 SCT100 OVC250 29/17 A2995 RMK AO2 SLP128
                 T02890167 =
2018-08-14 19:53 METAR KMDW 150053Z 25005KT 10SM FEW060 SCT100 OVC250 29/16 A2994 RMK AO2 SLP126
                 T02890161 =
2018-08-14 18:53 METAR KMDW 142353Z 22005KT 10SM FEW060 SCT100 BKN250 30/16 A2994 RMK AO2 SLP126
                 T03000156 10322 20300 56007 =
2018-08-14 17:53 METAR KMDW 142253Z 22008KT 10SM FEW060 BKN250 30/16 A2995 RMK AO2 SLP130
                 T03000156 =
2018-08-14 16:53 METAR KMDW 142153Z VRB04KT 10SM FEW060 BKN250 31/16 A2994 RMK AO2 SLP129
                 T03110156 =
2018-08-14 15:53 METAR KMDW 142053Z 25008KT 10SM FEW060 BKN250 31/17 A2996 RMK AO2 SLP132
                 T03060172 56011 =
2018-08-14 14:53 METAR KMDW 141953Z 21008KT 10SM FEW060 BKN250 32/16 A2996 RMK AO2 SLP135
                 T03170156 =
2018-08-14 13:53 METAR KMDW 141853Z 23009G14KT 10SM FEW060 BKN250 32/16 A2998 RMK AO2 SLP140
                 T03170156 =
2018-08-14 12:53 METAR KMDW 141753Z 19006KT 10SM SCT055 SCT250 31/16 A2999 RMK AO2 SLP143
                 T03110156 10311 20217 58005 =
2018-08-14 11:53 METAR KMDW 141653Z 00000KT 10SM FEW050 30/17 A3000 RMK AO2 SLP146 T03000167 =
2018-08-14 10:53 METAR KMDW 141553Z 28007KT 10SM FEW050 29/17 A3000 RMK AO2 SLP147 T02940172 =
2018-08-14 09:53 METAR KMDW 141453Z 24007KT 10SM CLR 28/17 A3000 RMK AO2 SLP148 T02830167 50000 =
2018-08-14 08:53 METAR KMDW 141353Z 24005KT 10SM CLR 26/18 A3001 RMK AO2 SLP150 T02610178 =
2018-08-14 07:53 METAR KMDW 141253Z 00000KT 10SM CLR 24/18 A3000 RMK AO2 SLP149 T02390178 =
2018-08-14 06:53 METAR KMDW 141153Z 23003KT 7SM FEW050 22/18 A3000 RMK AO2 SLP149 T02170178 10244
                 20206 53006 =
2018-08-14 05:53 METAR KMDW 141053Z 25005KT 7SM FEW050 21/17 A3000 RMK AO2 SLP148 T02110172 =
2018-08-14 04:53 METAR KMDW 140953Z 27003KT 8SM CLR 21/17 A2999 RMK AO2 SLP144 T02110172 =
2018-08-14 03:53 METAR KMDW 140853Z 00000KT 9SM CLR 22/17 A2999 RMK AO2 SLP142 T02220167 56008 =

Support USWX by starting your Amazon purchase here.